Time;durP1;ratioP1;P1;durP2;ratioP2;P2;SDS_P1;SDS_P2;PMS_P1;PMS_P2;Temp;Humidity;BMP_temperature;BMP_pressure;BME280_temperature;BME280_humidity;BME280_pressure;Samples;Min_cycle;Max_cycle;Signal;HPM_P1;HPM_P2
2022/05/21 00:00:28;;;;;;;8.88;5.40;;;17.40;99.90;;;;;;5014268;28;20492;-53
2022/05/21 00:02:54;;;;;;;8.57;5.32;;;17.50;99.90;;;;;;5013701;28;20034;-52
2022/05/21 00:05:23;;;;;;;8.70;5.20;;;17.50;99.90;;;;;;5012270;28;20049;-54
2022/05/21 00:07:48;;;;;;;6.93;5.20;;;17.30;99.90;;;;;;5013367;28;20080;-54
2022/05/21 00:10:16;;;;;;;9.68;4.88;;;17.40;99.90;;;;;;5013405;28;20462;-53
2022/05/21 00:12:42;;;;;;;5.65;4.60;;;17.40;99.90;;;;;;4995599;28;20030;-56
2022/05/21 00:15:10;;;;;;;6.00;5.10;;;17.20;99.90;;;;;;4995556;28;20030;-55
2022/05/21 00:17:36;;;;;;;4.70;4.25;;;17.30;99.90;;;;;;5012750;28;20094;-54
2022/05/21 00:20:02;;;;;;;6.55;4.70;;;17.20;99.90;;;;;;5013775;28;20030;-55
2022/05/21 00:22:28;;;;;;;4.95;4.45;;;17.10;99.90;;;;;;5013364;28;20056;-57
2022/05/21 00:24:54;;;;;;;8.20;4.15;;;17.10;99.90;;;;;;5012887;28;20034;-55
2022/05/21 00:27:19;;;;;;;6.38;3.67;;;17.10;99.90;;;;;;5012920;28;20077;-56
2022/05/21 00:29:45;;;;;;;5.63;3.63;;;17.20;99.90;;;;;;5013510;28;20046;-52
2022/05/21 00:32:11;;;;;;;5.45;4.07;;;17.20;99.90;;;;;;5013160;28;20038;-57
2022/05/21 00:34:37;;;;;;;5.93;3.67;;;17.20;99.90;;;;;;5005412;28;20061;-54
2022/05/21 00:37:03;;;;;;;6.05;3.40;;;17.20;99.90;;;;;;5012674;28;20045;-54
2022/05/21 00:39:29;;;;;;;4.25;3.30;;;17.10;99.90;;;;;;5014375;28;20037;-54
2022/05/21 00:41:55;;;;;;;5.97;3.55;;;17.10;99.90;;;;;;5013557;28;20030;-55
2022/05/21 00:44:21;;;;;;;3.90;3.25;;;17.00;99.90;;;;;;5012065;28;20036;-56
2022/05/21 00:46:48;;;;;;;3.35;2.90;;;17.10;99.90;;;;;;5012090;28;20037;-51
2022/05/21 00:49:26;;;;;;;5.07;2.80;;;16.90;99.90;;;;;;5013206;28;20116;-55
2022/05/21 00:52:00;;;;;;;5.07;2.95;;;17.10;99.90;;;;;;5013279;28;20088;-54
2022/05/21 00:54:32;;;;;;;3.13;2.70;;;17.00;99.90;;;;;;5013910;28;20036;-56
2022/05/21 00:57:23;;;;;;;4.95;2.80;;;16.90;99.90;;;;;;5012494;28;20026;-55
2022/05/21 00:59:54;;;;;;;3.22;2.85;;;16.80;99.90;;;;;;5004554;28;20038;-55
2022/05/21 01:02:24;;;;;;;4.60;2.50;;;16.70;99.90;;;;;;5012651;28;20030;-53
2022/05/21 01:04:50;;;;;;;4.30;2.58;;;16.70;99.90;;;;;;5012100;28;20428;-53
2022/05/21 01:07:16;;;;;;;3.15;2.58;;;16.60;99.90;;;;;;5011318;28;20025;-56
2022/05/21 01:09:51;;;;;;;3.20;2.60;;;16.50;99.90;;;;;;5012361;28;20044;-56
2022/05/21 01:12:17;;;;;;;5.03;2.90;;;16.50;99.90;;;;;;5012688;28;20033;-56
2022/05/21 01:14:48;;;;;;;4.88;3.00;;;16.30;99.90;;;;;;5013135;28;20026;-56
2022/05/21 01:17:15;;;;;;;5.40;2.90;;;16.30;99.90;;;;;;5012172;28;20047;-53
2022/05/21 01:19:58;;;;;;;5.07;3.20;;;16.30;99.90;;;;;;5012773;28;20034;-54
2022/05/21 01:22:26;;;;;;;4.70;3.42;;;16.20;99.90;;;;;;5013117;28;20030;-56
2022/05/21 01:24:52;;;;;;;5.43;3.83;;;16.10;99.90;;;;;;5012609;28;20389;-56
2022/05/21 01:27:19;;;;;;;5.30;3.58;;;16.10;99.90;;;;;;5012654;28;20060;-53
2022/05/21 01:29:47;;;;;;;5.50;4.20;;;16.00;99.90;;;;;;5013124;28;20116;-55
2022/05/21 01:32:17;;;;;;;5.07;4.03;;;16.00;99.90;;;;;;5012822;28;20101;-56
2022/05/21 01:34:43;;;;;;;6.75;4.25;;;15.90;99.90;;;;;;5012500;28;20030;-53
2022/05/21 01:37:09;;;;;;;6.55;4.47;;;16.00;99.90;;;;;;5011845;28;20072;-55
2022/05/21 01:39:35;;;;;;;5.15;4.60;;;15.80;99.90;;;;;;5012651;28;20030;-55
2022/05/21 01:42:01;;;;;;;9.25;4.70;;;15.80;99.90;;;;;;5012374;28;20036;-51
2022/05/21 01:44:38;;;;;;;6.90;5.03;;;15.80;99.90;;;;;;5012714;28;20089;-53
2022/05/21 01:47:09;;;;;;;6.03;4.97;;;15.80;99.90;;;;;;5012034;28;20030;-51
2022/05/21 01:49:35;;;;;;;7.07;5.60;;;15.80;99.90;;;;;;5010826;28;20413;-56
2022/05/21 01:52:03;;;;;;;6.68;5.13;;;15.70;99.90;;;;;;5011986;28;20042;-56
2022/05/21 01:54:28;;;;;;;7.60;5.70;;;15.60;99.90;;;;;;5011819;28;20058;-52
2022/05/21 01:56:54;;;;;;;8.90;5.50;;;15.50;99.90;;;;;;5011977;28;20037;-53
2022/05/21 01:59:20;;;;;;;8.25;5.60;;;15.40;99.90;;;;;;5012106;28;20046;-57
2022/05/21 02:01:46;;;;;;;7.40;6.18;;;15.40;99.90;;;;;;5012752;28;20038;-55
2022/05/21 02:04:12;;;;;;;6.53;5.93;;;15.50;99.90;;;;;;5013264;28;20040;-56
2022/05/21 02:06:37;;;;;;;7.20;6.50;;;15.60;99.90;;;;;;5011754;28;20109;-55
2022/05/21 02:09:03;;;;;;;7.88;5.95;;;15.40;99.90;;;;;;5012274;28;20441;-53
2022/05/21 02:11:29;;;;;;;10.52;6.13;;;15.40;99.90;;;;;;5015628;28;20037;-52
2022/05/21 02:13:54;;;;;;;10.13;6.13;;;15.30;99.90;;;;;;5016343;28;20026;-55
2022/05/21 02:16:20;;;;;;;10.25;6.43;;;15.20;99.90;;;;;;5015953;28;20045;-57
2022/05/21 02:18:45;;;;;;;7.82;6.63;;;15.30;99.90;;;;;;5016291;28;20038;-55
2022/05/21 02:21:11;;;;;;;8.85;6.60;;;15.40;99.90;;;;;;5015794;28;20042;-53
2022/05/21 02:23:37;;;;;;;9.43;6.60;;;15.30;99.90;;;;;;5015283;28;20037;-52
2022/05/21 02:26:02;;;;;;;8.82;6.63;;;15.40;99.90;;;;;;5014129;28;20552;-54
2022/05/21 02:28:29;;;;;;;9.88;7.65;;;15.20;99.90;;;;;;5015221;28;20042;-53
2022/05/21 02:30:55;;;;;;;10.02;7.05;;;15.10;99.90;;;;;;5015374;28;20585;-56
2022/05/21 02:33:21;;;;;;;9.20;7.03;;;15.00;99.90;;;;;;5014395;28;20069;-55
2022/05/21 02:35:46;;;;;;;7.65;6.85;;;15.00;99.90;;;;;;5015775;28;20490;-56
2022/05/21 02:40:56;;;;;;;11.32;8.05;;;15.10;99.90;;;;;;5017645;28;20030;-56
2022/05/21 02:43:22;;;;;;;9.32;8.25;;;15.00;99.90;;;;;;5015198;28;20038;-53
2022/05/21 02:45:48;;;;;;;11.38;8.20;;;15.00;99.90;;;;;;5013929;28;20121;-56
2022/05/21 02:48:14;;;;;;;11.70;8.23;;;14.80;99.90;;;;;;5015026;28;20766;-56
2022/05/21 02:50:41;;;;;;;10.55;8.57;;;14.80;99.90;;;;;;5014997;28;20025;-51
2022/05/21 02:53:13;;;;;;;9.45;8.38;;;14.70;99.90;;;;;;5014943;28;20486;-53
2022/05/21 02:55:38;;;;;;;10.20;8.30;;;14.60;99.90;;;;;;5014549;28;20018;-58
2022/05/21 02:58:04;;;;;;;10.20;8.43;;;14.60;99.90;;;;;;5014714;28;20413;-56
2022/05/21 03:00:31;;;;;;;13.27;8.45;;;14.50;99.90;;;;;;5015118;28;20040;-58
2022/05/21 03:02:57;;;;;;;7.72;6.70;;;14.50;99.90;;;;;;5014910;28;20560;-53
2022/05/21 03:05:25;;;;;;;9.52;6.78;;;14.60;99.90;;;;;;5014361;28;20037;-53
2022/05/21 03:07:52;;;;;;;10.38;6.97;;;14.70;99.90;;;;;;5014793;28;20061;-55
2022/05/21 03:10:21;;;;;;;8.20;6.00;;;14.70;99.90;;;;;;5014312;28;20076;-55
2022/05/21 03:12:48;;;;;;;9.32;6.60;;;14.70;99.90;;;;;;5014417;28;20030;-53
2022/05/21 03:15:14;;;;;;;8.43;6.20;;;14.60;99.90;;;;;;5013695;28;20061;-53
2022/05/21 03:17:39;;;;;;;7.13;6.10;;;14.60;99.90;;;;;;5013845;28;20477;-54
2022/05/21 03:20:06;;;;;;;9.60;6.65;;;14.50;99.90;;;;;;5014456;28;20117;-53
2022/05/21 03:22:32;;;;;;;6.72;5.85;;;14.50;99.90;;;;;;5013398;28;20021;-52
2022/05/21 03:24:58;;;;;;;7.25;5.57;;;14.40;99.90;;;;;;5015013;28;20536;-52
2022/05/21 03:27:24;;;;;;;7.95;5.93;;;14.20;99.90;;;;;;5014264;28;20038;-56
2022/05/21 03:29:49;;;;;;;9.77;5.63;;;14.20;99.90;;;;;;5014767;28;20142;-52
2022/05/21 03:32:15;;;;;;;8.23;4.90;;;14.10;99.90;;;;;;5014453;28;20054;-53
2022/05/21 03:34:41;;;;;;;6.78;4.88;;;14.20;99.90;;;;;;5014332;28;20034;-57
2022/05/21 03:37:07;;;;;;;5.22;4.72;;;14.20;99.90;;;;;;5013405;28;20076;-55
2022/05/21 03:39:32;;;;;;;5.68;4.05;;;14.10;99.90;;;;;;5014231;28;20026;-55
2022/05/21 03:41:58;;;;;;;6.25;3.90;;;14.00;99.90;;;;;;5014092;28;20052;-51
2022/05/21 03:44:25;;;;;;;5.35;3.80;;;14.10;99.90;;;;;;5014451;28;20049;-54
2022/05/21 03:46:51;;;;;;;8.45;3.80;;;14.00;99.90;;;;;;5013590;28;20133;-51
2022/05/21 03:49:17;;;;;;;5.25;4.22;;;14.00;99.90;;;;;;5012537;28;20058;-54
2022/05/21 03:51:43;;;;;;;7.40;4.20;;;14.10;99.90;;;;;;5014326;28;20037;-54
2022/05/21 03:54:09;;;;;;;6.75;3.80;;;14.10;99.90;;;;;;5014080;28;20026;-56
2022/05/21 03:56:35;;;;;;;6.75;3.80;;;14.10;99.90;;;;;;5014020;28;20440;-52
2022/05/21 03:59:00;;;;;;;4.32;3.47;;;14.00;99.90;;;;;;5014035;28;20041;-54
2022/05/21 04:01:26;;;;;;;5.20;3.53;;;14.10;99.90;;;;;;5013625;28;20034;-54
2022/05/21 04:03:54;;;;;;;6.78;3.97;;;14.20;99.90;;;;;;5012116;28;20044;-55
2022/05/21 04:06:21;;;;;;;7.03;4.57;;;14.10;99.90;;;;;;5012626;28;20025;-52
2022/05/21 04:08:47;;;;;;;6.40;4.07;;;14.10;99.90;;;;;;5013300;28;20052;-52
2022/05/21 04:11:12;;;;;;;5.90;3.80;;;14.10;99.90;;;;;;5013648;28;20140;-54
2022/05/21 04:13:38;;;;;;;7.30;4.30;;;14.10;99.90;;;;;;5013232;28;20034;-55
2022/05/21 04:16:04;;;;;;;9.32;4.30;;;14.00;99.90;;;;;;5012821;28;20026;-57
2022/05/21 04:18:29;;;;;;;6.70;3.85;;;14.10;99.90;;;;;;5012457;28;20033;-54
2022/05/21 04:20:55;;;;;;;9.85;4.20;;;14.10;99.90;;;;;;5014261;28;20042;-53
2022/05/21 04:23:20;;;;;;;9.75;4.13;;;14.20;99.90;;;;;;5013968;28;20381;-54
2022/05/21 04:25:47;;;;;;;7.35;3.90;;;14.40;99.90;;;;;;5013167;28;20111;-56
2022/05/21 04:28:13;;;;;;;6.28;4.20;;;14.60;99.90;;;;;;4996742;28;20034;-57
2022/05/21 04:30:39;;;;;;;5.60;4.30;;;14.60;99.90;;;;;;5014257;28;20041;-54
2022/05/21 04:33:04;;;;;;;5.57;3.97;;;14.60;99.90;;;;;;5012818;28;20026;-53
2022/05/21 04:38:15;;;;;;;6.80;4.38;;;14.60;99.90;;;;;;5013630;28;20025;-56
2022/05/21 04:40:42;;;;;;;5.15;4.00;;;14.60;99.90;;;;;;5013097;28;20037;-56
2022/05/21 04:43:07;;;;;;;6.82;4.30;;;14.60;99.90;;;;;;5013191;28;20060;-53
2022/05/21 04:45:33;;;;;;;7.30;4.15;;;14.50;99.90;;;;;;5012189;28;20042;-54
2022/05/21 04:48:03;;;;;;;6.00;3.65;;;14.60;99.90;;;;;;5012648;28;20041;-57
2022/05/21 04:50:28;;;;;;;6.82;4.20;;;14.60;99.90;;;;;;5012593;28;20094;-55
2022/05/21 04:52:54;;;;;;;11.38;4.00;;;14.50;99.90;;;;;;5011035;28;20180;-54
2022/05/21 04:55:19;;;;;;;6.78;4.32;;;14.60;99.90;;;;;;5012888;28;20037;-55
2022/05/21 04:57:45;;;;;;;5.97;3.88;;;14.50;99.90;;;;;;5012865;28;20141;-54
2022/05/21 05:00:12;;;;;;;5.45;3.83;;;14.60;99.90;;;;;;5012816;28;20037;-53
2022/05/21 05:02:37;;;;;;;5.55;4.00;;;14.40;99.90;;;;;;5013265;28;20033;-54
2022/05/21 05:05:04;;;;;;;6.10;4.32;;;14.40;99.90;;;;;;5013069;28;20096;-54
2022/05/21 05:07:30;;;;;;;5.63;3.63;;;14.30;99.90;;;;;;5011975;28;20026;-52
2022/05/21 05:09:56;;;;;;;5.80;3.88;;;14.10;99.90;;;;;;5012334;28;20382;-57
2022/05/21 05:12:21;;;;;;;6.28;3.78;;;14.10;99.90;;;;;;5013212;28;20080;-54
2022/05/21 05:14:47;;;;;;;6.95;4.00;;;14.20;99.90;;;;;;5012402;28;20512;-55
2022/05/21 05:17:14;;;;;;;6.43;4.20;;;14.10;99.90;;;;;;5011833;28;20083;-51
2022/05/21 05:19:40;;;;;;;6.07;3.67;;;14.10;99.90;;;;;;5012436;28;20034;-52
2022/05/21 05:22:09;;;;;;;4.50;3.75;;;14.30;99.90;;;;;;5012450;28;20026;-53
2022/05/21 05:24:36;;;;;;;7.40;3.85;;;14.40;99.90;;;;;;5011971;28;20116;-55
2022/05/21 05:27:02;;;;;;;14.60;4.13;;;14.60;99.90;;;;;;5011637;28;20030;-50
2022/05/21 05:29:28;;;;;;;6.63;3.60;;;14.60;99.90;;;;;;5013117;28;20041;-54
2022/05/21 05:31:54;;;;;;;5.32;3.55;;;14.70;99.90;;;;;;5012573;28;20092;-53
2022/05/21 05:34:20;;;;;;;7.10;4.32;;;14.70;99.90;;;;;;5012832;28;20573;-56
2022/05/21 05:36:47;;;;;;;6.72;3.95;;;14.60;99.90;;;;;;5011031;28;20038;-56
2022/05/21 05:39:13;;;;;;;5.25;3.90;;;14.50;99.90;;;;;;5012802;28;20083;-56
2022/05/21 05:41:39;;;;;;;6.82;4.15;;;14.70;99.90;;;;;;4995383;28;20026;-56
2022/05/21 05:44:05;;;;;;;5.35;4.20;;;14.70;99.90;;;;;;5012249;28;20098;-54
2022/05/21 05:46:31;;;;;;;9.15;4.85;;;14.70;99.90;;;;;;5015561;28;20049;-54
2022/05/21 05:48:57;;;;;;;7.85;4.65;;;14.80;99.80;;;;;;5016936;28;20037;-55
2022/05/21 05:51:22;;;;;;;10.88;5.70;;;14.90;99.70;;;;;;5016622;28;20025;-58
2022/05/21 05:53:48;;;;;;;7.68;5.10;;;14.80;99.60;;;;;;5015040;28;20436;-56
2022/05/21 05:56:15;;;;;;;7.25;5.97;;;14.80;99.50;;;;;;5015370;28;20076;-58
2022/05/21 06:01:25;;;;;;;9.40;6.13;;;14.80;99.40;;;;;;5016394;28;20038;-57
2022/05/21 06:03:52;;;;;;;10.48;6.07;;;14.80;99.60;;;;;;5015894;28;20705;-55
2022/05/21 06:06:18;;;;;;;7.57;6.57;;;14.70;99.60;;;;;;5014757;28;20037;-54
2022/05/21 06:08:44;;;;;;;8.88;6.15;;;14.70;99.60;;;;;;5014392;28;20659;-54
2022/05/21 06:11:10;;;;;;;6.53;5.88;;;14.70;99.40;;;;;;5015090;28;20120;-56
2022/05/21 06:13:36;;;;;;;8.88;5.68;;;14.70;99.20;;;;;;5015258;28;20030;-53
2022/05/21 06:16:02;;;;;;;8.98;6.15;;;14.60;99.30;;;;;;5018672;28;20030;-55
2022/05/21 06:18:27;;;;;;;8.68;5.43;;;14.60;99.30;;;;;;5018793;28;20052;-57
2022/05/21 06:20:53;;;;;;;6.40;4.82;;;14.60;99.30;;;;;;5019885;28;20067;-56
2022/05/21 06:23:19;;;;;;;6.78;5.30;;;14.80;99.00;;;;;;5015490;28;20049;-54
2022/05/21 06:25:45;;;;;;;6.10;4.70;;;14.90;98.80;;;;;;4996026;28;20041;-57
2022/05/21 06:28:11;;;;;;;8.45;4.93;;;15.00;98.70;;;;;;5013326;28;20026;-54
2022/05/21 06:30:40;;;;;;;6.07;4.70;;;14.90;98.90;;;;;;5014156;28;20042;-57
2022/05/21 06:33:18;;;;;;;11.10;5.15;;;15.20;98.60;;;;;;5015093;28;20397;-54
2022/05/21 06:35:48;;;;;;;8.43;5.40;;;15.20;97.90;;;;;;5014477;28;20026;-54
2022/05/21 06:38:14;;;;;;;7.80;5.10;;;15.20;98.00;;;;;;5014908;28;20061;-51
2022/05/21 06:40:40;;;;;;;6.35;5.50;;;15.20;97.90;;;;;;4997163;28;20026;-49
2022/05/21 06:43:06;;;;;;;6.18;4.72;;;15.20;98.30;;;;;;5014739;28;20041;-53
2022/05/21 06:45:33;;;;;;;8.48;5.18;;;15.30;97.40;;;;;;5014097;28;20026;-55
2022/05/21 06:48:06;;;;;;;6.38;5.13;;;15.30;97.40;;;;;;5015131;28;20471;-56
2022/05/21 06:50:33;;;;;;;8.07;4.90;;;15.30;97.70;;;;;;5014203;28;20116;-52
2022/05/21 06:52:58;;;;;;;7.55;4.55;;;15.40;97.70;;;;;;5014394;28;20128;-55
2022/05/21 06:55:24;;;;;;;4.90;4.40;;;15.30;97.60;;;;;;5013975;28;20072;-54
2022/05/21 06:57:51;;;;;;;5.57;4.95;;;15.60;97.30;;;;;;5013585;28;20076;-55
2022/05/21 07:00:19;;;;;;;6.43;5.10;;;15.50;96.90;;;;;;5013945;28;20029;-52
2022/05/21 07:02:44;;;;;;;7.13;5.15;;;15.50;97.00;;;;;;5013383;28;20096;-50
2022/05/21 07:07:55;;;;;;;7.57;6.40;;;15.70;96.90;;;;;;5013818;28;20034;-52
2022/05/21 07:10:25;;;;;;;7.78;6.93;;;15.60;96.30;;;;;;5013932;28;20041;-53
2022/05/21 07:12:51;;;;;;;8.15;6.82;;;15.40;95.60;;;;;;5014094;28;20120;-51
2022/05/21 07:15:17;;;;;;;7.95;6.15;;;15.40;96.00;;;;;;5014296;28;20029;-56
2022/05/21 07:17:45;;;;;;;10.05;7.05;;;15.50;96.20;;;;;;4977578;28;1047789;-50
2022/05/21 07:20:15;;;;;;;9.18;6.78;;;15.60;96.50;;;;;;5014830;28;20037;-53
2022/05/21 07:22:46;;;;;;;7.93;6.57;;;15.70;96.10;;;;;;5015539;28;20038;-54
2022/05/21 07:25:14;;;;;;;8.50;6.05;;;15.90;96.10;;;;;;4997198;28;20069;-49
2022/05/21 07:27:40;;;;;;;8.00;6.63;;;16.00;96.00;;;;;;5013771;28;20026;-50
2022/05/21 07:30:07;;;;;;;6.35;5.75;;;15.70;96.70;;;;;;5014568;28;20057;-53
2022/05/21 07:32:32;;;;;;;6.75;6.05;;;16.00;96.50;;;;;;4996863;28;20021;-54
2022/05/21 07:35:01;;;;;;;9.73;5.63;;;16.10;96.20;;;;;;4996728;28;20038;-49
2022/05/21 07:37:27;;;;;;;8.75;5.80;;;16.00;96.40;;;;;;5013800;28;20030;-56
2022/05/21 07:39:53;;;;;;;8.80;5.20;;;16.10;96.10;;;;;;5014188;28;20457;-55
2022/05/21 07:42:19;;;;;;;7.05;5.80;;;16.30;95.50;;;;;;5014165;28;20073;-52
2022/05/21 07:44:44;;;;;;;7.38;5.28;;;16.40;95.20;;;;;;5014104;28;20033;-47
2022/05/21 07:47:11;;;;;;;6.93;5.55;;;16.20;96.00;;;;;;5012346;28;20400;-48
2022/05/21 07:49:37;;;;;;;8.65;5.88;;;16.20;96.00;;;;;;5014354;28;20030;-52
2022/05/21 07:52:04;;;;;;;8.90;5.47;;;16.30;95.70;;;;;;5014886;28;20057;-49
2022/05/21 07:54:30;;;;;;;6.05;5.28;;;16.10;95.90;;;;;;5014671;28;20065;-53
2022/05/21 07:56:56;;;;;;;7.65;5.68;;;16.10;96.20;;;;;;5013247;28;20026;-55
2022/05/21 07:59:22;;;;;;;9.95;5.63;;;16.40;95.80;;;;;;5014304;28;20389;-54
2022/05/21 08:01:48;;;;;;;6.40;5.80;;;16.40;95.40;;;;;;5014199;28;20026;-51
2022/05/21 08:04:14;;;;;;;7.32;5.45;;;16.50;95.80;;;;;;5014529;28;20034;-56
2022/05/21 08:06:40;;;;;;;8.23;5.70;;;16.70;95.60;;;;;;5013032;28;20030;-53
2022/05/21 08:09:05;;;;;;;7.00;4.68;;;16.50;95.10;;;;;;5012004;28;20038;-52
2022/05/21 08:11:31;;;;;;;7.88;5.13;;;16.40;95.80;;;;;;5014393;28;20038;-51
2022/05/21 08:13:56;;;;;;;6.68;4.97;;;16.40;96.30;;;;;;5013532;28;20030;-52
2022/05/21 08:16:22;;;;;;;6.55;4.95;;;16.50;96.60;;;;;;5013643;28;20102;-55
2022/05/21 08:18:48;;;;;;;7.95;5.30;;;16.50;96.90;;;;;;5013691;28;20030;-53
2022/05/21 08:21:14;;;;;;;7.63;5.13;;;16.60;96.00;;;;;;5013842;28;20122;-53
2022/05/21 08:29:08;;;;;;;6.13;5.53;;;16.60;95.90;;;;;;5013299;28;20374;-54
2022/05/21 08:31:34;;;;;;;7.95;5.90;;;16.40;96.40;;;;;;5014204;28;20045;-54
2022/05/21 08:34:00;;;;;;;11.98;7.18;;;16.30;96.30;;;;;;5013585;28;20033;-49
2022/05/21 08:36:26;;;;;;;9.50;6.20;;;16.10;97.00;;;;;;5012402;28;20077;-54
2022/05/21 08:38:52;;;;;;;8.27;5.82;;;16.20;97.00;;;;;;5013257;28;20133;-55
2022/05/21 08:41:24;;;;;;;7.45;5.10;;;16.20;97.00;;;;;;5013083;28;20121;-52
2022/05/21 08:44:12;;;;;;;6.22;5.10;;;16.20;97.00;;;;;;5008772;28;20030;-50
2022/05/21 08:46:47;;;;;;;5.90;5.22;;;16.20;96.50;;;;;;5012932;28;20029;-51
2022/05/21 08:49:25;;;;;;;5.18;4.68;;;16.10;96.50;;;;;;5012916;28;20396;-52
2022/05/21 08:52:02;;;;;;;5.18;4.40;;;16.10;97.00;;;;;;5012314;28;20137;-54
2022/05/21 08:54:34;;;;;;;6.90;4.43;;;16.20;96.80;;;;;;5013351;28;20029;-55
2022/05/21 08:57:02;;;;;;;6.80;4.53;;;16.30;97.20;;;;;;5013271;28;20030;-51
2022/05/21 08:59:36;;;;;;;7.07;4.63;;;16.30;96.90;;;;;;5013087;28;20049;-54
2022/05/21 09:02:02;;;;;;;5.20;4.53;;;16.40;96.60;;;;;;5012364;28;20160;-52
2022/05/21 09:04:30;;;;;;;5.20;4.45;;;16.40;96.70;;;;;;5013106;28;20280;-52
2022/05/21 09:07:00;;;;;;;5.85;4.15;;;16.30;97.00;;;;;;5011943;28;20033;-50
2022/05/21 09:09:56;;;;;;;6.95;4.30;;;16.40;96.80;;;;;;5013369;28;20049;-49
2022/05/21 09:12:32;;;;;;;5.13;4.13;;;16.50;97.00;;;;;;5012733;28;20033;-52
2022/05/21 09:15:03;;;;;;;6.65;4.32;;;16.70;97.00;;;;;;5013193;28;20517;-56
2022/05/21 09:17:28;;;;;;;5.97;4.43;;;16.80;96.90;;;;;;4994988;28;20106;-48
2022/05/21 09:20:01;;;;;;;6.13;4.05;;;16.60;97.10;;;;;;5012471;28;20121;-55
2022/05/21 09:22:27;;;;;;;6.00;3.97;;;16.70;96.60;;;;;;5012781;28;20516;-53
2022/05/21 09:24:55;;;;;;;6.97;4.70;;;16.80;96.00;;;;;;5012295;28;20030;-50
2022/05/21 09:27:26;;;;;;;5.72;4.40;;;16.60;95.40;;;;;;5011801;28;20040;-52
2022/05/21 09:30:08;;;;;;;4.60;3.60;;;16.40;95.90;;;;;;5012592;28;20034;-55
2022/05/21 09:32:35;;;;;;;7.18;4.32;;;16.50;95.80;;;;;;5012156;28;20030;-50
2022/05/21 09:35:07;;;;;;;6.03;4.10;;;16.40;95.80;;;;;;5012237;28;20118;-52
2022/05/21 09:37:33;;;;;;;6.43;4.82;;;16.50;95.90;;;;;;5011750;28;20038;-52
2022/05/21 09:39:59;;;;;;;6.65;4.32;;;16.50;95.90;;;;;;5012478;28;20030;-54
2022/05/21 09:45:33;;;;;;;7.13;4.43;;;16.40;96.20;;;;;;5012414;28;20398;-55
2022/05/21 09:48:04;;;;;;;7.45;4.07;;;16.50;96.30;;;;;;5012741;28;20464;-49
2022/05/21 09:50:41;;;;;;;7.40;4.40;;;16.30;96.30;;;;;;5017980;28;20559;-57
2022/05/21 09:53:27;;;;;;;7.90;4.72;;;16.60;96.10;;;;;;5019010;28;20088;-55
2022/05/21 09:55:57;;;;;;;5.70;4.22;;;17.00;95.90;;;;;;5016884;28;20535;-53
2022/05/21 09:58:24;;;;;;;6.88;4.20;;;17.20;95.80;;;;;;5012692;28;20072;-55
2022/05/21 10:00:54;;;;;;;4.75;4.25;;;17.20;95.60;;;;;;5014529;28;20072;-49
2022/05/21 10:03:39;;;;;;;7.20;4.38;;;16.90;95.70;;;;;;5013223;28;20029;-50
2022/05/21 10:06:15;;;;;;;;;;;16.90;95.90;;;;;;5010317;28;20486;-56
2022/05/21 10:11:33;;;;;;;8.70;4.68;;;16.80;95.30;;;;;;5012703;28;20059;-54
2022/05/21 10:14:17;;;;;;;7.60;5.03;;;16.80;95.50;;;;;;5012519;28;20076;-55
2022/05/21 10:16:57;;;;;;;5.65;3.78;;;17.00;95.30;;;;;;5011625;28;20058;-54
2022/05/21 10:19:38;;;;;;;5.65;4.15;;;17.10;95.10;;;;;;5012278;28;20068;-53
2022/05/21 10:22:19;;;;;;;5.47;4.28;;;17.20;95.40;;;;;;5012151;28;20037;-54
2022/05/21 10:25:09;;;;;;;7.05;4.50;;;17.50;95.20;;;;;;5012029;28;20091;-55
2022/05/21 10:28:10;;;;;;;7.25;4.50;;;17.80;95.80;;;;;;5011945;28;20026;-50
2022/05/21 10:30:59;;;;;;;6.97;4.30;;;18.10;95.30;;;;;;5012979;28;20041;-55
2022/05/21 10:33:44;;;;;;;6.95;4.45;;;18.00;94.90;;;;;;5016725;28;20069;-52
2022/05/21 10:36:29;;;;;;;5.85;4.22;;;17.90;94.90;;;;;;5013750;28;20024;-52
2022/05/21 10:39:24;;;;;;;5.40;3.95;;;17.70;95.00;;;;;;5015820;28;20057;-48
2022/05/21 10:42:05;;;;;;;6.30;4.00;;;17.70;94.90;;;;;;5015321;28;20026;-55
2022/05/21 10:44:56;;;;;;;7.50;4.40;;;17.80;94.80;;;;;;5015412;28;20069;-50
2022/05/21 10:47:41;;;;;;;5.88;4.18;;;18.00;94.50;;;;;;5015517;28;20033;-47
2022/05/21 10:50:08;;;;;;;6.15;4.85;;;17.80;94.50;;;;;;5016022;28;20041;-51
2022/05/21 10:53:03;;;;;;;6.78;4.50;;;17.60;95.10;;;;;;5015991;28;20045;-51
2022/05/21 10:55:41;;;;;;;6.28;4.22;;;17.50;95.30;;;;;;5014892;28;20473;-53
2022/05/21 10:58:23;;;;;;;6.68;4.60;;;17.30;95.20;;;;;;4997512;28;20030;-53
2022/05/21 11:01:14;;;;;;;7.93;4.70;;;17.10;95.50;;;;;;5014764;28;20677;-52
2022/05/21 11:03:49;;;;;;;5.95;4.50;;;17.10;95.90;;;;;;5015365;28;20515;-49
2022/05/21 11:06:36;;;;;;;5.70;4.13;;;17.00;96.00;;;;;;5016439;28;20052;-53
2022/05/21 11:09:20;;;;;;;9.13;3.90;;;17.00;95.40;;;;;;4998670;28;20062;-51
2022/05/21 11:12:37;;;;;;;8.07;4.40;;;17.20;95.90;;;;;;5014819;28;20064;-53
2022/05/21 11:15:15;;;;;;;9.02;4.22;;;17.50;95.50;;;;;;4982058;28;20037;-56
2022/05/21 11:17:49;;;;;;;5.78;3.75;;;17.80;95.30;;;;;;4996974;28;20041;-58
2022/05/21 11:20:36;;;;;;;5.37;3.60;;;18.00;94.40;;;;;;5014751;28;20029;-50
2022/05/21 11:23:30;;;;;;;6.10;3.72;;;18.00;93.90;;;;;;5015177;28;20076;-53
2022/05/21 11:26:02;;;;;;;4.55;3.58;;;17.90;94.80;;;;;;5014114;28;20089;-54
2022/05/21 11:28:40;;;;;;;4.72;3.50;;;17.80;93.80;;;;;;5015221;28;20060;-50
2022/05/21 11:37:19;;;;;;;7.45;3.42;;;17.80;93.60;;;;;;5015809;28;20072;-54
2022/05/21 11:37:23;;;;;;;5.85;2.80;;;18.20;88.10;;;;;;4953590;28;20023;-56
2022/05/21 11:39:54;;;;;;;4.78;2.95;;;18.20;87.20;;;;;;4953565;28;20035;-48
2022/05/21 11:42:33;;;;;;;3.53;2.85;;;18.40;85.90;;;;;;4981136;28;20418;-54
2022/05/21 11:45:22;;;;;;;4.35;3.15;;;18.30;85.00;;;;;;5014861;28;20463;-54
2022/05/21 11:47:54;;;;;;;4.80;3.00;;;18.30;85.20;;;;;;5014144;28;20061;-51
2022/05/21 11:50:26;;;;;;;4.55;3.20;;;18.50;84.60;;;;;;5014714;28;20022;-49
2022/05/21 11:53:00;;;;;;;6.07;3.58;;;18.40;84.90;;;;;;5014462;28;20030;-51
2022/05/21 11:55:30;;;;;;;7.05;3.17;;;18.30;84.50;;;;;;5014173;28;20092;-54
2022/05/21 11:58:02;;;;;;;6.93;3.40;;;18.30;84.30;;;;;;5013713;28;20084;-51
2022/05/21 12:00:27;;;;;;;6.07;3.35;;;18.20;85.10;;;;;;5013315;28;20029;-48
2022/05/21 12:03:10;;;;;;;4.80;3.17;;;18.10;85.30;;;;;;5013295;28;20096;-55
2022/05/21 12:05:46;;;;;;;7.35;3.70;;;18.20;85.80;;;;;;5014234;28;20038;-48
2022/05/21 12:08:25;;;;;;;5.30;3.75;;;18.20;86.20;;;;;;5014320;28;20022;-49
2022/05/21 12:11:11;;;;;;;5.57;3.60;;;18.40;85.60;;;;;;5014225;28;20026;-55
2022/05/21 12:13:39;;;;;;;7.68;3.92;;;18.30;85.60;;;;;;5013159;28;20665;-50
2022/05/21 12:16:16;;;;;;;4.68;3.55;;;18.30;85.30;;;;;;5012991;28;20022;-52
2022/05/21 12:18:48;;;;;;;13.70;3.92;;;18.40;86.00;;;;;;5013899;28;20049;-53
2022/05/21 12:21:29;;;;;;;7.63;4.50;;;18.40;84.60;;;;;;5013525;28;20401;-52
2022/05/21 12:23:57;;;;;;;5.80;3.85;;;18.40;85.30;;;;;;5013569;28;20029;-51
2022/05/21 12:26:30;;;;;;;7.13;3.78;;;18.60;84.30;;;;;;5012650;28;20570;-48
2022/05/21 12:29:19;;;;;;;7.65;3.72;;;18.70;85.10;;;;;;5013091;28;20092;-53
2022/05/21 12:31:46;;;;;;;5.85;3.65;;;18.70;86.30;;;;;;5012845;28;20033;-50
2022/05/21 12:34:42;;;;;;;5.07;3.90;;;18.80;86.60;;;;;;5012665;28;20045;-54
2022/05/21 12:37:27;;;;;;;6.85;4.13;;;19.10;86.40;;;;;;5012331;28;20085;-50
2022/05/21 12:40:02;;;;;;;5.53;3.72;;;19.30;86.00;;;;;;5012561;28;20125;-47
2022/05/21 12:42:47;;;;;;;6.55;4.10;;;19.50;85.10;;;;;;5013204;28;20069;-52
2022/05/21 12:45:14;;;;;;;;;;;19.70;84.00;;;;;;5013300;28;20026;-53
2022/05/21 12:47:44;;;;;;;4.97;3.60;;;19.90;83.50;;;;;;5013198;28;19905;-51
2022/05/21 12:50:17;;;;;;;7.97;3.85;;;19.70;83.10;;;;;;5013494;28;20041;-50
2022/05/21 12:52:54;;;;;;;6.05;3.67;;;19.60;83.20;;;;;;5012948;28;20018;-54
2022/05/21 12:55:30;;;;;;;7.05;3.50;;;19.90;82.80;;;;;;5012097;28;20036;-52
2022/05/21 12:58:13;;;;;;;7.00;3.97;;;19.70;83.70;;;;;;5012270;28;20041;-54
2022/05/21 13:00:52;;;;;;;6.55;3.60;;;19.60;82.00;;;;;;5013687;28;20457;-56
2022/05/21 13:03:20;;;;;;;5.03;3.58;;;19.50;81.20;;;;;;5012692;28;20037;-56
2022/05/21 13:05:55;;;;;;;6.20;3.92;;;19.40;82.70;;;;;;5012664;28;20112;-51
2022/05/21 13:08:22;;;;;;;4.97;3.65;;;19.50;81.30;;;;;;5012624;28;20089;-51
2022/05/21 13:11:15;;;;;;;5.95;3.70;;;19.60;81.50;;;;;;5012310;28;20478;-55
2022/05/21 13:13:43;;;;;;;7.15;3.97;;;19.40;82.90;;;;;;5011992;28;20253;-51
2022/05/21 13:16:19;;;;;;;10.23;5.82;;;19.50;82.20;;;;;;5011830;28;20474;-50
2022/05/21 13:18:54;;;;;;;6.22;3.90;;;19.50;83.20;;;;;;5012986;28;20121;-55
2022/05/21 13:21:41;;;;;;;6.60;3.60;;;19.80;82.80;;;;;;5012643;28;20150;-53
2022/05/21 13:24:22;;;;;;;6.57;3.83;;;20.10;82.00;;;;;;4994903;28;20112;-57
2022/05/21 13:27:07;;;;;;;9.18;4.13;;;20.20;81.00;;;;;;5011583;28;20034;-49